Guadalupe, Arizona
Current Conditions -  °F | °C
As of 12:51 PM on Tuesday 21 Oct 2014 (Local Time) from KPHX Reporting Station
Scattered Clouds Scattered Clouds  
Wind Chill: 88°   Ceiling: Unl
Heat Index: 88°   Visibility: 10mi
Dew Point: 51°   Wind: 12mph
Humidity: 28%   Direction: 150°SSE
Pressure: 29.83"   Gusts: NA
Location:  33.364°N, 111.931°W
Report Text: KPHX 211951Z 15010KT 10SM FEW080 SCT250 31/11 A2983 RMK AO2 SLP083 T03110106 $
Loading
Personal Weather Stations






























Interactive Weather Map
Tropical Storm Tracking
New forecast layout! Learn more

10-Day Weather Forecast

Advertisements
Track Severe Weather on mobile